Lansdowne House Airport
CYLH : now visible

Airfield :











YOU CAN JOIN US ON...

 
LOGIN :

Register | Disclaimer

   EN    FR    IT 

 









Legend :    VFR   Marginal VFR   IFR   Intensive IFR   Very Intensive IFR
Visi :
Ceiling :
>= 8 km
>= 3000ft
5 to 8 km
1000 to 3000 ft
1500m to 5 km
500 to 1000 ft
800 to 1500m
200 to 500 ft
< 800m
< 200 ft
Symbols :   Thunderstorms  Fog  Heavy snow  Heavy precipitations  Wind > 20 kt






- Airport Elevation : 834 ft
- IATA code : YLH


CYLH - Lansdowne House

CURRENT METAR :
  • 311500Z AUTO 17006G17KT 140V200 9SM FEW027 OVC032 01/M03 A2947 RMK PRESFR SLP994

EXPIRED METARs :
  • 311447Z AUTO 17008G20KT 9SM BKN027 OVC032 01/M03 A2948 RMK SLP001
  • 311429Z AUTO 17010G19KT 130V190 9SM -RA OVC025 00/M03 A2950 RMK SLP005
  • 311412Z AUTO 15010G21KT 9SM -RA BKN023 OVC075 00/M03 A2951 RMK SLP008
  • 311411Z AUTO 15012G21KT 9SM -RA -UP BKN023 OVC075 00/M03 A2951 RMK SLP008
  • 311359Z AUTO 15011G19KT 9SM -SN BKN021 BKN026 BKN049 OVC078 00/M03 A2951 RMK PRESFR SLP011
  • 311350Z AUTO 14010G20KT 120V190 9SM -SN BKN021 BKN049 BKN065 OVC081 M00/M03 A2954 RMK SLP018
  • 311340Z AUTO 13011G20KT 9SM -SN FEW023 SCT048 BKN060 OVC084 M01/M03 A2954 RMK PRESFR SLP019
  • 311328Z AUTO 12012G22KT 9SM FEW048 OVC080 M01/M03 A2956 RMK PRESFR SLP028
  • 311305Z AUTO 13013G21KT 9SM -SN BKN050 OVC065 M01/M03 A2961 RMK PRESFR SLP045
  • 311253Z AUTO 13010G15KT 9SM BKN050 BKN060 OVC074 M01/M04 A2964 RMK PRESFR SLP053

TAF N/A
CZWG FIR / North America



MET'MAP, your aeronautical weather chart ! - Copyright ORBIFLY December 2007 - Disclaimer

ORBIFLY MET'MAP TEAM :

Programming & Development : Alexandra Zaïnal
Concept & original design : Baudouin d'Aumeries
Assistance for programming : Marc-Olivier Méhu
Technical & hardware support : Manuel Goepfert

Contact : metmap@orbifly.com




SOURCES & CREDITS :

   NOAA       Earth
Advisory